Time;durP1;ratioP1;P1;durP2;ratioP2;P2;SDS_P1;SDS_P2;PMS_P1;PMS_P2;Temp;Humidity;BMP_temperature;BMP_pressure;BME280_temperature;BME280_humidity;BME280_pressure;Samples;Min_cycle;Max_cycle;Signal;HPM_P1;HPM_P2
2023/04/16 00:00:34;;;;;;;1.58;1.30;;;20.90;63.20;;;;;;5030618;27;86074;-87
2023/04/16 00:03:00;;;;;;;2.55;1.40;;;20.90;63.20;;;;;;5028621;27;86528;-87
2023/04/16 00:05:26;;;;;;;1.90;1.50;;;20.80;63.30;;;;;;5030847;27;86876;-86
2023/04/16 00:07:52;;;;;;;3.95;2.20;;;20.80;63.30;;;;;;5030009;27;85654;-86
2023/04/16 00:10:17;;;;;;;3.45;1.90;;;20.80;64.30;;;;;;5027204;28;85719;-87
2023/04/16 00:12:43;;;;;;;4.78;2.00;;;20.80;63.30;;;;;;5030680;28;87077;-87
2023/04/16 00:15:09;;;;;;;2.17;1.60;;;20.80;63.40;;;;;;5046389;27;90031;-86
2023/04/16 00:17:35;;;;;;;2.13;1.65;;;20.80;63.20;;;;;;5029395;27;85676;-86
2023/04/16 00:20:00;;;;;;;2.78;1.98;;;20.80;63.30;;;;;;5028422;28;85817;-86
2023/04/16 00:22:26;;;;;;;2.67;1.70;;;20.80;63.50;;;;;;5028439;28;86494;-87
2023/04/16 00:24:51;;;;;;;3.63;2.00;;;20.70;63.60;;;;;;5027712;28;86836;-87
2023/04/16 00:27:18;;;;;;;2.30;1.55;;;20.70;63.40;;;;;;5029047;27;86224;-86
2023/04/16 00:29:44;;;;;;;3.25;1.73;;;20.80;63.30;;;;;;5029336;27;86297;-87
2023/04/16 00:32:09;;;;;;;1.83;1.65;;;20.70;63.30;;;;;;5029788;27;87319;-87
2023/04/16 00:34:35;;;;;;;2.92;1.55;;;20.70;63.20;;;;;;5028522;28;86974;-86
2023/04/16 00:37:00;;;;;;;2.58;1.70;;;20.70;63.40;;;;;;5029658;27;86146;-87
2023/04/16 00:39:26;;;;;;;3.75;1.88;;;20.70;63.40;;;;;;5028403;28;85779;-86
2023/04/16 00:41:52;;;;;;;2.03;1.50;;;20.70;63.40;;;;;;5028195;28;90564;-87
2023/04/16 00:44:17;;;;;;;2.80;1.77;;;20.70;63.40;;;;;;5029314;27;86078;-86
2023/04/16 00:46:44;;;;;;;2.85;1.60;;;20.70;63.40;;;;;;5027045;28;86131;-87
2023/04/16 00:49:10;;;;;;;2.65;1.70;;;20.70;63.20;;;;;;5030751;28;86046;-86
2023/04/16 00:55:38;;;;;;;3.38;1.60;;;20.70;63.30;;;;;;5031668;28;89620;-87
2023/04/16 00:58:04;;;;;;;2.22;1.48;;;20.60;63.40;;;;;;5032488;27;86157;-87
2023/04/16 01:00:29;;;;;;;2.03;1.60;;;20.60;63.20;;;;;;5034038;28;85979;-86
2023/04/16 01:02:55;;;;;;;3.03;1.35;;;20.60;63.30;;;;;;5032172;27;87154;-86
2023/04/16 01:12:05;;;;;;;3.10;1.58;;;20.60;63.30;;;;;;5031804;27;85972;-86
2023/04/16 01:14:35;;;;;;;2.70;1.52;;;20.60;63.30;;;;;;5032452;28;87350;-86
2023/04/16 01:17:01;;;;;;;3.15;1.65;;;20.60;63.20;;;;;;5031409;28;86247;-86
2023/04/16 01:19:30;;;;;;;2.42;1.40;;;20.60;63.30;;;;;;5030587;28;86313;-87
2023/04/16 01:21:56;;;;;;;2.13;1.27;;;20.60;63.40;;;;;;5029015;27;86397;-87
2023/04/16 01:24:21;;;;;;;2.35;1.40;;;20.60;63.40;;;;;;5029869;28;87126;-86
2023/04/16 01:26:47;;;;;;;1.90;1.35;;;20.50;63.30;;;;;;5028955;27;86812;-86
2023/04/16 01:29:12;;;;;;;2.05;1.50;;;20.50;63.30;;;;;;5028394;28;86109;-86
2023/04/16 01:31:38;;;;;;;1.55;1.30;;;20.50;63.40;;;;;;5031938;27;86186;-86
2023/04/16 01:34:04;;;;;;;4.68;1.98;;;20.50;63.30;;;;;;5034084;27;86158;-86
2023/04/16 01:36:29;;;;;;;2.53;1.50;;;20.50;63.40;;;;;;5032836;27;86725;-86
2023/04/16 01:38:55;;;;;;;2.17;1.58;;;20.50;64.20;;;;;;5032250;27;85799;-86
2023/04/16 01:41:36;;;;;;;2.03;1.45;;;20.50;63.50;;;;;;5032263;27;85510;-86
2023/04/16 01:44:02;;;;;;;2.78;1.77;;;20.50;63.50;;;;;;5029001;28;90026;-86
2023/04/16 01:46:30;;;;;;;2.63;1.77;;;20.50;63.50;;;;;;5030282;28;86644;-86
2023/04/16 01:48:56;;;;;;;2.55;1.30;;;20.50;63.50;;;;;;5029654;27;85661;-87
2023/04/16 01:51:22;;;;;;;2.13;1.40;;;20.50;63.40;;;;;;5030820;28;85789;-87
2023/04/16 01:53:49;;;;;;;2.25;1.50;;;20.50;63.40;;;;;;5030039;28;90070;-88
2023/04/16 01:56:15;;;;;;;1.73;1.48;;;20.40;63.50;;;;;;5031004;28;86255;-87
2023/04/16 01:58:41;;;;;;;2.92;1.75;;;20.40;63.50;;;;;;5031611;27;86079;-86
2023/04/16 02:01:07;;;;;;;1.80;1.27;;;20.40;63.60;;;;;;5033659;27;85667;-87
2023/04/16 02:03:33;;;;;;;3.17;1.50;;;20.40;63.60;;;;;;5032217;28;87049;-86
2023/04/16 02:06:00;;;;;;;2.38;1.45;;;20.40;63.50;;;;;;5031584;27;86523;-87
2023/04/16 02:08:26;;;;;;;2.65;1.50;;;20.40;63.50;;;;;;5032019;27;86279;-87
2023/04/16 02:10:52;;;;;;;2.15;1.42;;;20.40;63.40;;;;;;5031589;28;86013;-86
2023/04/16 02:13:17;;;;;;;2.75;1.50;;;20.30;63.50;;;;;;5029218;28;90570;-86
2023/04/16 02:15:47;;;;;;;2.63;1.70;;;20.30;63.40;;;;;;5032545;28;86784;-86
2023/04/16 02:18:12;;;;;;;;;;;20.40;63.50;;;;;;5032042;28;87499;-86
2023/04/16 02:20:42;;;;;;;2.03;1.35;;;20.40;63.50;;;;;;5031264;27;86454;-87
2023/04/16 02:23:08;;;;;;;;;;;20.40;63.70;;;;;;5030081;28;91411;-87
2023/04/16 02:26:04;;;;;;;2.25;1.30;;;20.40;63.70;;;;;;5031807;27;86403;-86
2023/04/16 02:28:29;;;;;;;2.30;1.48;;;20.40;63.50;;;;;;4997919;28;85943;-86
2023/04/16 02:30:55;;;;;;;2.00;1.20;;;20.40;63.70;;;;;;4998187;28;85789;-87
2023/04/16 02:33:24;;;;;;;3.50;1.50;;;20.30;63.80;;;;;;4999117;28;87994;-86
2023/04/16 02:35:50;;;;;;;2.70;1.30;;;20.30;63.70;;;;;;4998099;28;86458;-87
2023/04/16 02:38:15;;;;;;;2.15;1.23;;;20.40;63.60;;;;;;4998300;28;86009;-86
2023/04/16 02:40:41;;;;;;;1.70;1.30;;;20.30;63.60;;;;;;4998781;28;85688;-87
2023/04/16 02:43:07;;;;;;;2.65;1.50;;;20.30;63.80;;;;;;4997940;28;90889;-86
2023/04/16 02:45:33;;;;;;;2.95;1.55;;;20.30;63.90;;;;;;4999344;28;86624;-86
2023/04/16 02:48:00;;;;;;;2.17;1.50;;;20.30;63.50;;;;;;4998321;28;86421;-86
2023/04/16 02:50:25;;;;;;;1.77;1.30;;;20.30;63.80;;;;;;4981290;28;86183;-87
2023/04/16 02:52:51;;;;;;;2.28;1.48;;;20.30;64.00;;;;;;4998022;28;89036;-86
2023/04/16 02:55:17;;;;;;;1.42;1.05;;;20.30;64.00;;;;;;4997655;28;86884;-87
2023/04/16 02:57:42;;;;;;;2.45;1.35;;;20.30;63.70;;;;;;4998985;28;86310;-87
2023/04/16 03:00:09;;;;;;;1.95;1.20;;;20.30;63.80;;;;;;5021981;28;86126;-86
2023/04/16 03:16:05;;;;;;;2.00;1.50;;;20.20;63.50;;;;;;5029101;28;89229;-86
2023/04/16 03:18:30;;;;;;;1.65;1.10;;;20.20;63.40;;;;;;5029816;28;87491;-86
2023/04/16 03:20:56;;;;;;;2.28;1.25;;;20.20;63.60;;;;;;5031136;28;85520;-85
2023/04/16 03:23:22;;;;;;;2.15;1.35;;;20.20;63.60;;;;;;5028657;28;85875;-86
2023/04/16 03:25:47;;;;;;;1.63;1.10;;;20.20;63.60;;;;;;5027980;28;86451;-87
2023/04/16 03:28:16;;;;;;;1.80;1.20;;;20.20;63.70;;;;;;5028802;28;87434;-85
2023/04/16 03:30:41;;;;;;;1.20;1.00;;;20.20;63.90;;;;;;5031073;28;86138;-86
2023/04/16 03:33:07;;;;;;;2.17;1.40;;;20.20;63.60;;;;;;5029470;28;86097;-86
2023/04/16 03:35:33;;;;;;;2.20;1.30;;;20.20;63.50;;;;;;5029412;28;87142;-86
2023/04/16 03:37:58;;;;;;;1.30;1.20;;;20.20;63.60;;;;;;5028500;28;90217;-86
2023/04/16 03:43:52;;;;;;;1.55;1.05;;;20.20;63.50;;;;;;5029927;28;86163;-85
2023/04/16 03:46:18;;;;;;;2.13;1.25;;;20.10;63.60;;;;;;5027287;28;88911;-85
2023/04/16 03:48:43;;;;;;;1.75;1.00;;;20.10;63.50;;;;;;5028714;28;86824;-85
2023/04/16 03:51:09;;;;;;;1.52;1.08;;;20.10;63.50;;;;;;5030870;28;85699;-85
2023/04/16 03:53:34;;;;;;;1.85;1.10;;;20.10;63.80;;;;;;5028280;28;86292;-86
2023/04/16 03:59:34;;;;;;;1.88;1.02;;;20.10;63.60;;;;;;5031878;27;85654;-85
2023/04/16 04:02:00;;;;;;;1.77;1.10;;;20.10;63.70;;;;;;5027836;28;86254;-85
2023/04/16 04:04:26;;;;;;;1.42;1.02;;;20.10;63.60;;;;;;5029724;27;86343;-86
2023/04/16 04:06:51;;;;;;;2.38;1.30;;;20.10;63.60;;;;;;5029499;28;87096;-85
2023/04/16 04:09:17;;;;;;;1.00;0.95;;;20.10;64.20;;;;;;5030514;27;86540;-87
2023/04/16 04:21:53;;;;;;;1.30;1.10;;;20.10;63.70;;;;;;5028115;28;89632;-86
2023/04/16 04:24:19;;;;;;;1.27;1.00;;;20.10;63.60;;;;;;5030566;28;86017;-85
2023/04/16 04:26:45;;;;;;;2.05;1.15;;;20.10;63.60;;;;;;5027061;28;85766;-86
2023/04/16 04:29:10;;;;;;;1.33;1.00;;;20.10;63.60;;;;;;5030221;28;90695;-86
2023/04/16 04:31:36;;;;;;;1.60;1.15;;;20.10;63.60;;;;;;5032493;27;86962;-85
2023/04/16 04:34:01;;;;;;;2.20;1.30;;;20.10;63.70;;;;;;5033636;27;86007;-85
2023/04/16 04:39:49;;;;;;;1.15;0.98;;;20.10;63.60;;;;;;5031565;28;90850;-87
2023/04/16 04:42:19;;;;;;;1.48;1.25;;;20.10;63.60;;;;;;5031614;28;88538;-86
2023/04/16 04:44:45;;;;;;;1.38;1.10;;;20.10;63.50;;;;;;5031447;28;85738;-86
2023/04/16 04:47:11;;;;;;;1.75;1.20;;;20.00;63.40;;;;;;5031882;28;85949;-86
2023/04/16 04:49:36;;;;;;;2.05;1.42;;;20.00;63.50;;;;;;5031883;28;86878;-86
2023/04/16 04:52:02;;;;;;;1.60;1.17;;;20.00;63.40;;;;;;5033648;28;87177;-87
2023/04/16 04:54:30;;;;;;;1.30;1.05;;;20.10;63.60;;;;;;5031546;28;85764;-86
2023/04/16 04:56:56;;;;;;;1.65;1.10;;;20.00;63.50;;;;;;5032145;27;85831;-86
2023/04/16 04:59:23;;;;;;;1.42;1.00;;;20.00;63.50;;;;;;5047437;27;90588;-86
2023/04/16 05:01:48;;;;;;;1.50;1.33;;;20.00;63.50;;;;;;5031863;27;86983;-86
2023/04/16 05:04:26;;;;;;;1.92;1.00;;;20.00;63.60;;;;;;5032061;27;85842;-86
2023/04/16 05:06:52;;;;;;;1.83;1.08;;;20.00;63.60;;;;;;5029700;28;85877;-86
2023/04/16 05:09:17;;;;;;;2.22;1.27;;;20.00;63.50;;;;;;5048214;27;89918;-86
2023/04/16 05:11:43;;;;;;;1.30;1.00;;;20.00;63.50;;;;;;5030427;27;87333;-86
2023/04/16 05:14:08;;;;;;;1.88;1.20;;;20.00;63.50;;;;;;5032051;27;86156;-86
2023/04/16 05:16:36;;;;;;;2.97;1.30;;;20.00;63.50;;;;;;5033710;27;85785;-86
2023/04/16 05:19:02;;;;;;;1.35;1.10;;;20.00;63.50;;;;;;5031516;27;86217;-85
2023/04/16 05:21:37;;;;;;;1.83;1.13;;;20.00;63.50;;;;;;5048982;27;88074;-86
2023/04/16 05:24:02;;;;;;;2.25;1.30;;;20.00;63.50;;;;;;5032074;27;86363;-86
2023/04/16 05:26:28;;;;;;;1.27;1.10;;;20.00;63.50;;;;;;5029090;28;85948;-85
2023/04/16 05:28:54;;;;;;;1.42;0.90;;;20.00;63.50;;;;;;5032846;27;87324;-87
2023/04/16 05:31:19;;;;;;;1.45;1.30;;;20.00;63.70;;;;;;5031630;28;86866;-86
2023/04/16 05:40:47;;;;;;;1.40;1.15;;;20.00;63.60;;;;;;5031962;27;85973;-86
2023/04/16 05:43:12;;;;;;;1.50;1.20;;;20.00;63.30;;;;;;5031637;27;86729;-86
2023/04/16 05:45:39;;;;;;;1.73;1.20;;;20.00;63.40;;;;;;5049173;27;86172;-86
2023/04/16 05:48:07;;;;;;;2.08;1.10;;;19.90;63.30;;;;;;5030753;28;86397;-87
2023/04/16 05:50:33;;;;;;;1.30;1.05;;;19.90;63.50;;;;;;5030237;28;87776;-87
2023/04/16 05:53:06;;;;;;;3.30;1.20;;;20.00;63.30;;;;;;5032260;27;85887;-87
2023/04/16 05:55:33;;;;;;;2.35;1.38;;;20.00;63.40;;;;;;5030914;27;86147;-88
2023/04/16 05:57:58;;;;;;;1.85;1.20;;;20.00;63.20;;;;;;5030681;27;86238;-88
2023/04/16 06:00:24;;;;;;;1.58;1.33;;;20.00;63.50;;;;;;5032379;28;86578;-87
2023/04/16 06:02:50;;;;;;;2.25;1.65;;;20.00;63.00;;;;;;5029828;28;88916;-86
2023/04/16 06:05:15;;;;;;;2.53;1.90;;;20.00;63.80;;;;;;5030762;27;86091;-88
2023/04/16 06:07:41;;;;;;;3.95;2.72;;;20.00;60.50;;;;;;5031501;28;86411;-86
2023/04/16 06:10:07;;;;;;;3.25;2.70;;;20.00;60.50;;;;;;5031722;28;87511;-87
2023/04/16 06:12:33;;;;;;;6.97;2.63;;;20.00;62.30;;;;;;5039428;28;90500;-85
2023/04/16 06:14:59;;;;;;;3.00;2.28;;;20.10;62.30;;;;;;5031599;28;87914;-84
2023/04/16 06:17:25;;;;;;;3.63;2.58;;;20.10;62.90;;;;;;5029677;27;85636;-85
2023/04/16 06:19:51;;;;;;;4.35;2.58;;;20.10;63.00;;;;;;5031317;27;86168;-85
2023/04/16 06:22:17;;;;;;;3.70;2.30;;;20.10;63.20;;;;;;5029702;28;86214;-85
2023/04/16 06:24:42;;;;;;;3.25;2.40;;;20.10;63.50;;;;;;5031380;28;86209;-86
2023/04/16 06:27:08;;;;;;;5.00;2.50;;;20.10;63.20;;;;;;5031346;28;86084;-86
2023/04/16 06:29:34;;;;;;;3.63;2.70;;;20.10;62.90;;;;;;5030588;27;86943;-87
2023/04/16 06:35:27;;;;;;;4.85;2.45;;;20.10;63.40;;;;;;5029329;28;86507;-87
2023/04/16 06:37:52;;;;;;;5.28;2.78;;;20.10;63.30;;;;;;5045370;27;86228;-87
2023/04/16 06:40:18;;;;;;;3.72;2.45;;;20.10;63.10;;;;;;5027683;27;88366;-86
2023/04/16 06:42:44;;;;;;;6.03;2.40;;;20.10;63.60;;;;;;5029714;27;86045;-87
2023/04/16 06:45:10;;;;;;;4.45;2.72;;;20.10;63.80;;;;;;5030548;28;85691;-86
2023/04/16 06:47:36;;;;;;;3.10;2.50;;;20.00;63.30;;;;;;5043965;27;87435;-87
2023/04/16 06:50:01;;;;;;;5.43;2.72;;;20.10;63.30;;;;;;5030378;28;86981;-89
2023/04/16 06:52:28;;;;;;;3.58;2.65;;;20.10;63.40;;;;;;5031606;28;86491;-87
2023/04/16 06:54:53;;;;;;;3.75;2.67;;;20.00;63.30;;;;;;5019740;27;86457;-87
2023/04/16 07:07:25;;;;;;;6.45;3.63;;;20.00;63.90;;;;;;5028358;28;86424;-86
2023/04/16 07:09:51;;;;;;;14.80;5.10;;;20.00;64.10;;;;;;5030795;27;86081;-88
2023/04/16 07:12:18;;;;;;;17.88;6.03;;;20.10;64.00;;;;;;5030750;27;86618;-89
2023/04/16 07:14:44;;;;;;;15.73;6.35;;;20.10;63.80;;;;;;5030999;27;86626;-90
2023/04/16 07:17:10;;;;;;;35.50;9.30;;;20.20;63.50;;;;;;5028759;28;86281;-91
2023/04/16 07:19:35;;;;;;;69.60;21.92;;;20.30;63.60;;;;;;5030792;28;85773;-90
2023/04/16 07:22:01;;;;;;;54.55;17.00;;;20.40;62.70;;;;;;5010313;28;91022;-91
2023/04/16 07:24:27;;;;;;;50.95;15.68;;;20.50;62.30;;;;;;5028377;28;89359;-92
2023/04/16 07:26:52;;;;;;;39.85;13.73;;;20.60;61.80;;;;;;5026747;28;86262;-90
2023/04/16 07:29:21;;;;;;;38.53;12.88;;;20.60;61.30;;;;;;5026629;28;85657;-91
2023/04/16 07:31:50;;;;;;;46.28;13.90;;;20.70;60.90;;;;;;5028291;28;88274;-92
2023/04/16 07:34:15;;;;;;;37.13;12.37;;;20.70;60.60;;;;;;5026808;28;88666;-93
2023/04/16 07:36:41;;;;;;;25.48;11.55;;;20.70;60.00;;;;;;5028008;28;85733;-91
2023/04/16 07:39:07;;;;;;;33.70;11.55;;;20.70;58.80;;;;;;5026840;28;86942;-94
2023/04/16 07:41:33;;;;;;;29.83;9.95;;;20.70;58.90;;;;;;5010662;28;88148;-94
2023/04/16 07:44:13;;;;;;;27.45;9.50;;;20.70;58.50;;;;;;5028995;28;89889;-93
2023/04/16 07:46:39;;;;;;;23.90;9.63;;;20.60;58.20;;;;;;5010505;28;86160;-90
2023/04/16 07:49:05;;;;;;;26.85;10.32;;;20.60;59.10;;;;;;5043571;27;85618;-90
2023/04/16 07:51:31;;;;;;;28.02;9.38;;;20.60;59.00;;;;;;5027848;28;90353;-92
2023/04/16 07:53:56;;;;;;;23.17;8.65;;;20.60;59.20;;;;;;5043972;27;88017;-88
2023/04/16 07:56:22;;;;;;;27.95;10.20;;;20.60;60.00;;;;;;5028626;27;86470;-89
2023/04/16 07:58:48;;;;;;;28.65;11.27;;;20.60;58.70;;;;;;5029324;28;86026;-88
2023/04/16 08:01:13;;;;;;;28.33;10.65;;;20.50;58.20;;;;;;5027979;28;86598;-88
2023/04/16 08:03:39;;;;;;;28.65;10.25;;;20.50;57.40;;;;;;5030772;27;85666;-89
2023/04/16 08:06:05;;;;;;;21.15;8.95;;;20.50;57.90;;;;;;5032442;28;86625;-89
2023/04/16 08:08:31;;;;;;;24.88;9.50;;;20.50;58.70;;;;;;5014644;27;86050;-89
2023/04/16 08:10:57;;;;;;;25.63;9.13;;;20.50;58.80;;;;;;4968419;28;87487;-89
2023/04/16 08:13:22;;;;;;;28.27;10.52;;;20.50;59.80;;;;;;4969788;28;85957;-88
2023/04/16 08:19:12;;;;;;;28.60;10.85;;;20.50;59.00;;;;;;4994755;28;91196;-87
2023/04/16 08:21:37;;;;;;;24.13;10.18;;;20.50;58.90;;;;;;4991037;28;90719;-89
2023/04/16 08:24:03;;;;;;;26.15;9.60;;;20.60;58.80;;;;;;4992911;28;85871;-86
2023/04/16 08:26:29;;;;;;;20.02;9.25;;;20.60;58.60;;;;;;4992106;28;86067;-87
2023/04/16 08:28:54;;;;;;;19.70;9.82;;;20.60;58.20;;;;;;4992960;28;86457;-88
2023/04/16 08:31:20;;;;;;;19.80;8.82;;;20.70;57.50;;;;;;4988539;28;88819;-89
2023/04/16 08:33:46;;;;;;;14.27;5.30;;;20.70;57.60;;;;;;4969161;28;90308;-86
2023/04/16 08:36:11;;;;;;;12.45;6.35;;;20.80;56.20;;;;;;4987978;28;86063;-86
2023/04/16 08:38:37;;;;;;;13.40;5.70;;;20.90;55.80;;;;;;4988375;28;85741;-86
2023/04/16 08:41:06;;;;;;;16.35;7.05;;;21.00;55.50;;;;;;4988886;28;87315;-85
2023/04/16 08:43:38;;;;;;;16.85;8.30;;;21.00;56.40;;;;;;4967858;28;89562;-87
2023/04/16 08:46:04;;;;;;;13.25;6.70;;;20.90;57.10;;;;;;4989298;28;86188;-87
2023/04/16 08:48:33;;;;;;;13.63;7.43;;;20.90;57.40;;;;;;4989947;28;86528;-88
2023/04/16 08:51:00;;;;;;;19.23;8.57;;;21.00;58.00;;;;;;4972800;28;88236;-87
2023/04/16 08:53:41;;;;;;;22.00;7.78;;;20.90;58.90;;;;;;4989418;28;87063;-88
2023/04/16 08:56:10;;;;;;;16.17;7.78;;;20.90;59.30;;;;;;4991861;28;86662;-87
2023/04/16 08:58:37;;;;;;;20.42;8.27;;;20.80;59.80;;;;;;4989192;28;89111;-87
2023/04/16 09:01:03;;;;;;;19.98;7.80;;;20.80;60.20;;;;;;4988736;28;87254;-88
2023/04/16 09:03:31;;;;;;;21.55;8.45;;;20.80;61.40;;;;;;4971851;28;90072;-86
2023/04/16 09:05:58;;;;;;;20.03;9.27;;;20.80;61.90;;;;;;4989373;28;86219;-88
2023/04/16 09:08:25;;;;;;;19.13;8.02;;;20.80;61.70;;;;;;4990005;28;86384;-86
2023/04/16 09:17:35;;;;;;;20.42;8.15;;;21.00;61.10;;;;;;4990479;28;86067;-87
2023/04/16 09:20:03;;;;;;;17.92;8.15;;;20.90;60.80;;;;;;4993493;28;85937;-88
2023/04/16 09:22:29;;;;;;;17.02;6.82;;;20.90;61.40;;;;;;5005559;28;90999;-85
2023/04/16 09:24:54;;;;;;;14.32;6.85;;;20.90;59.90;;;;;;4990692;28;86048;-85
2023/04/16 09:27:21;;;;;;;16.63;6.93;;;21.00;59.30;;;;;;4991313;28;86038;-88
2023/04/16 09:29:47;;;;;;;14.05;6.45;;;21.10;58.40;;;;;;4991798;28;86251;-87
2023/04/16 09:32:12;;;;;;;11.70;5.95;;;21.10;58.40;;;;;;4992187;28;87883;-87
2023/04/16 09:35:14;;;;;;;11.82;5.30;;;21.00;58.50;;;;;;5007288;28;88511;-88
2023/04/16 09:41:08;;;;;;;14.18;6.50;;;21.20;56.60;;;;;;4940916;28;86366;-87
2023/04/16 09:43:34;;;;;;;11.55;5.47;;;21.20;56.80;;;;;;4943091;28;88092;-86
2023/04/16 09:46:00;;;;;;;9.40;4.72;;;21.20;56.60;;;;;;4939549;28;87088;-86
2023/04/16 09:48:29;;;;;;;12.45;6.00;;;21.20;56.50;;;;;;4922977;28;86492;-87
2023/04/16 09:50:55;;;;;;;11.40;5.30;;;21.30;55.80;;;;;;4940360;28;85858;-87
2023/04/16 09:53:28;;;;;;;7.60;4.85;;;21.30;56.00;;;;;;4938679;28;88745;-86
2023/04/16 09:55:58;;;;;;;14.18;6.03;;;21.30;55.00;;;;;;4940853;28;86914;-88
2023/04/16 09:58:24;;;;;;;15.57;6.78;;;21.30;55.90;;;;;;4939236;28;85767;-88
2023/04/16 10:01:07;;;;;;;13.88;5.72;;;21.20;57.40;;;;;;4939108;28;86231;-89
2023/04/16 10:03:34;;;;;;;12.18;6.20;;;21.20;57.90;;;;;;4923701;28;90513;-89
2023/04/16 10:06:05;;;;;;;14.50;6.72;;;21.20;58.50;;;;;;4922931;28;90367;-87
2023/04/16 10:08:31;;;;;;;11.80;5.97;;;21.10;59.40;;;;;;4923384;28;86411;-85
2023/04/16 10:11:18;;;;;;;11.90;6.72;;;21.10;59.50;;;;;;4949978;28;86053;-86
2023/04/16 10:13:45;;;;;;;13.77;6.25;;;21.10;60.20;;;;;;4991029;28;95506;-87
2023/04/16 10:16:11;;;;;;;12.75;6.25;;;21.00;60.00;;;;;;4992462;28;87319;-89
2023/04/16 10:18:38;;;;;;;11.55;6.57;;;21.00;60.00;;;;;;4990963;28;85636;-89
2023/04/16 10:21:05;;;;;;;12.07;6.55;;;21.00;60.70;;;;;;4991493;28;86399;-92
2023/04/16 10:23:51;;;;;;;11.93;6.35;;;21.00;60.70;;;;;;4991135;28;86448;-89
2023/04/16 10:26:17;;;;;;;14.70;6.97;;;20.90;60.70;;;;;;4988712;28;87164;-89
2023/04/16 10:28:44;;;;;;;13.95;6.38;;;20.90;60.70;;;;;;4991572;28;85889;-88
2023/04/16 10:31:11;;;;;;;10.63;6.35;;;20.90;60.60;;;;;;4989994;28;85759;-88
2023/04/16 10:33:40;;;;;;;12.95;6.30;;;21.00;61.00;;;;;;4977628;28;87662;-88
2023/04/16 10:36:14;;;;;;;16.33;6.70;;;21.00;61.10;;;;;;4957476;28;88995;-86
2023/04/16 10:38:44;;;;;;;13.07;6.70;;;20.90;61.20;;;;;;4958112;28;86162;-88
2023/04/16 10:41:10;;;;;;;13.57;6.20;;;20.90;60.40;;;;;;4959628;28;85983;-87
2023/04/16 10:43:44;;;;;;;12.30;6.78;;;20.90;60.00;;;;;;4959187;28;90258;-87
2023/04/16 10:46:40;;;;;;;12.02;6.53;;;20.90;61.10;;;;;;4958226;28;85924;-87
2023/04/16 10:49:18;;;;;;;12.70;7.50;;;20.90;61.30;;;;;;4919369;28;86542;-87
2023/04/16 10:51:53;;;;;;;15.75;7.00;;;20.90;61.40;;;;;;4919926;28;85742;-88
2023/04/16 10:54:22;;;;;;;16.27;7.88;;;20.90;61.70;;;;;;4899067;28;89472;-86
2023/04/16 10:57:08;;;;;;;13.38;7.10;;;20.90;61.90;;;;;;4900301;28;86830;-86
2023/04/16 10:59:36;;;;;;;14.23;7.07;;;20.80;62.30;;;;;;4899875;28;86267;-85
2023/04/16 11:02:13;;;;;;;10.07;6.70;;;20.80;62.70;;;;;;4901273;28;86095;-86
2023/04/16 11:04:41;;;;;;;13.15;7.20;;;20.80;63.10;;;;;;4900320;28;92009;-87
2023/04/16 11:07:19;;;;;;;17.30;7.65;;;20.80;63.60;;;;;;4902196;28;90336;-88
2023/04/16 11:10:11;;;;;;;15.40;7.82;;;20.80;64.40;;;;;;4918949;28;86115;-87
2023/04/16 11:12:41;;;;;;;15.68;7.60;;;20.80;64.70;;;;;;4919336;28;86410;-87
2023/04/16 11:15:15;;;;;;;12.85;7.45;;;20.90;65.60;;;;;;4915820;28;87442;-87
2023/04/16 11:17:50;;;;;;;18.75;8.63;;;20.80;65.20;;;;;;4918421;28;86402;-87
2023/04/16 11:20:18;;;;;;;19.23;9.77;;;20.80;66.60;;;;;;4918995;28;86409;-88
2023/04/16 11:22:46;;;;;;;14.50;8.88;;;20.70;69.40;;;;;;4904051;28;85903;-87
2023/04/16 11:25:12;;;;;;;13.77;8.07;;;20.80;68.60;;;;;;4926551;28;86637;-86
2023/04/16 11:27:38;;;;;;;18.33;8.43;;;20.80;67.30;;;;;;4957304;28;86689;-88
2023/04/16 11:30:08;;;;;;;13.02;8.27;;;20.80;66.50;;;;;;4957559;28;86468;-88
2023/04/16 11:32:35;;;;;;;12.32;7.95;;;20.90;66.90;;;;;;4995019;28;85906;-89
2023/04/16 11:35:19;;;;;;;13.02;8.02;;;20.90;65.60;;;;;;4989479;28;86159;-86
2023/04/16 11:37:47;;;;;;;13.50;7.90;;;21.00;65.80;;;;;;4989380;28;91372;-87
2023/04/16 11:40:12;;;;;;;15.43;9.02;;;21.00;65.40;;;;;;4991055;28;85648;-87
2023/04/16 11:42:39;;;;;;;14.18;7.68;;;21.00;64.70;;;;;;4989903;28;86349;-87
2023/04/16 11:45:07;;;;;;;12.43;6.50;;;21.00;65.10;;;;;;4990028;28;87329;-87
2023/04/16 11:47:52;;;;;;;12.98;7.43;;;21.10;64.90;;;;;;4991215;28;86259;-87
2023/04/16 11:50:22;;;;;;;15.50;7.15;;;21.10;65.00;;;;;;4988821;28;85700;-86
2023/04/16 11:52:50;;;;;;;14.68;7.70;;;21.20;64.60;;;;;;4990893;28;85767;-86
2023/04/16 11:55:15;;;;;;;13.60;7.78;;;21.10;64.40;;;;;;4989602;28;94478;-87
2023/04/16 11:57:41;;;;;;;13.07;8.52;;;21.20;65.00;;;;;;4989405;28;85774;-88
2023/04/16 12:00:12;;;;;;;15.13;8.10;;;21.10;65.20;;;;;;4988382;28;86184;-87
2023/04/16 12:02:40;;;;;;;15.73;7.90;;;21.00;65.40;;;;;;4990306;28;86228;-86
2023/04/16 12:05:41;;;;;;;15.93;7.70;;;21.10;65.50;;;;;;4990625;28;86465;-87
2023/04/16 12:08:09;;;;;;;13.32;8.00;;;21.10;64.80;;;;;;4947877;28;90493;-87
2023/04/16 12:10:37;;;;;;;10.90;7.32;;;21.00;65.70;;;;;;4949561;28;86567;-87
2023/04/16 12:13:13;;;;;;;14.57;7.97;;;21.00;65.90;;;;;;4938258;28;86008;-87
2023/04/16 12:15:51;;;;;;;15.95;7.10;;;20.90;66.10;;;;;;4947425;28;86367;-86
2023/04/16 12:18:19;;;;;;;13.48;8.15;;;20.90;66.30;;;;;;4946183;28;86358;-86
2023/04/16 12:20:45;;;;;;;14.15;8.43;;;20.90;66.30;;;;;;4947204;28;86544;-87
2023/04/16 12:23:24;;;;;;;20.88;8.30;;;20.90;66.50;;;;;;4947043;28;85779;-87
2023/04/16 12:25:50;;;;;;;14.23;8.43;;;20.90;66.80;;;;;;4931275;28;91728;-86
2023/04/16 12:28:31;;;;;;;13.02;8.02;;;20.90;66.60;;;;;;4931841;28;88952;-86
2023/04/16 12:30:56;;;;;;;13.50;7.93;;;20.90;66.50;;;;;;4947043;28;85957;-86
2023/04/16 12:33:25;;;;;;;14.45;7.18;;;21.00;66.40;;;;;;4946773;28;86129;-84
2023/04/16 12:35:51;;;;;;;14.05;7.97;;;21.10;66.00;;;;;;4949130;28;87465;-85
2023/04/16 12:38:17;;;;;;;13.82;7.63;;;21.20;65.40;;;;;;4945881;28;86251;-87
2023/04/16 12:40:42;;;;;;;16.33;7.57;;;21.30;65.00;;;;;;4945588;28;86406;-87
2023/04/16 12:43:12;;;;;;;11.70;6.65;;;21.40;65.30;;;;;;4978359;28;86476;-88
2023/04/16 12:45:38;;;;;;;12.27;7.35;;;21.50;64.60;;;;;;4988049;28;86967;-88
2023/04/16 12:48:04;;;;;;;12.88;7.05;;;21.50;64.60;;;;;;4987820;28;86833;-88
2023/04/16 12:50:30;;;;;;;13.93;7.40;;;21.50;64.50;;;;;;4990619;28;86248;-88
2023/04/16 12:52:56;;;;;;;11.63;7.13;;;21.50;65.30;;;;;;4990839;28;85572;-89
2023/04/16 12:59:02;;;;;;;17.50;7.13;;;21.60;64.50;;;;;;4991145;28;90104;-88
2023/04/16 13:01:28;;;;;;;10.95;7.15;;;21.50;64.70;;;;;;4991175;28;86043;-88
2023/04/16 13:03:53;;;;;;;9.93;7.10;;;21.50;64.60;;;;;;4990628;28;85900;-88
2023/04/16 13:06:19;;;;;;;11.43;7.03;;;21.50;64.60;;;;;;4989671;28;87429;-88
2023/04/16 13:08:45;;;;;;;11.90;7.13;;;21.50;64.60;;;;;;4988671;28;87004;-88
2023/04/16 13:11:11;;;;;;;14.02;7.82;;;21.50;65.40;;;;;;4990280;28;86115;-89
2023/04/16 13:13:37;;;;;;;9.38;6.65;;;21.60;64.60;;;;;;4990062;28;86119;-88
2023/04/16 13:16:05;;;;;;;10.52;7.35;;;21.60;64.60;;;;;;4990545;28;87555;-88
2023/04/16 13:18:31;;;;;;;11.48;7.20;;;21.70;64.70;;;;;;4987830;28;88545;-89
2023/04/16 13:37:46;;;;;;;10.93;6.53;;;22.10;63.80;;;;;;4989778;28;86363;-89
2023/04/16 13:40:12;;;;;;;12.00;6.68;;;22.10;63.60;;;;;;4989384;28;86421;-89
2023/04/16 13:42:38;;;;;;;10.25;6.30;;;22.00;63.70;;;;;;4989263;28;86483;-89
2023/04/16 13:45:04;;;;;;;7.25;6.03;;;22.10;63.60;;;;;;5005409;28;86785;-90
2023/04/16 13:47:29;;;;;;;9.52;6.47;;;22.10;63.60;;;;;;4988384;28;86512;-90
2023/04/16 13:49:55;;;;;;;10.32;6.07;;;22.10;63.50;;;;;;4990213;28;87304;-90
2023/04/16 14:15:52;;;;;;;8.93;6.03;;;22.70;61.90;;;;;;4991355;28;86243;-89
2023/04/16 14:18:18;;;;;;;10.30;5.65;;;22.70;62.30;;;;;;4978777;28;90796;-89
2023/04/16 14:20:44;;;;;;;8.50;5.38;;;22.70;62.50;;;;;;4987148;28;86956;-89
2023/04/16 14:23:11;;;;;;;13.65;7.35;;;22.70;62.70;;;;;;4989589;28;85636;-90
2023/04/16 14:25:37;;;;;;;13.27;5.40;;;22.70;63.00;;;;;;4989266;28;86309;-89
2023/04/16 14:28:08;;;;;;;9.05;6.38;;;22.70;63.20;;;;;;5004263;28;89867;-89
2023/04/16 14:30:34;;;;;;;16.40;6.35;;;22.60;63.70;;;;;;4987661;28;86331;-90
2023/04/16 14:33:00;;;;;;;9.02;6.13;;;22.70;64.00;;;;;;4990391;28;85777;-91
2023/04/16 14:35:26;;;;;;;12.27;6.50;;;22.70;63.70;;;;;;4988226;28;86132;-93
2023/04/16 14:37:52;;;;;;;13.82;6.13;;;22.70;64.30;;;;;;4989470;28;86333;-89
2023/04/16 14:40:17;;;;;;;12.13;6.38;;;22.70;64.30;;;;;;5002590;28;88857;-92
2023/04/16 14:42:43;;;;;;;13.40;6.45;;;22.80;62.60;;;;;;4988195;28;86337;-92
2023/04/16 14:45:09;;;;;;;11.90;6.30;;;22.80;62.30;;;;;;4991300;28;86155;-89
2023/04/16 14:47:36;;;;;;;14.60;7.07;;;22.80;62.30;;;;;;4993444;28;86235;-88